Time;durP1;ratioP1;P1;durP2;ratioP2;P2;SDS_P1;SDS_P2;PMS_P1;PMS_P2;Temp;Humidity;BMP_temperature;BMP_pressure;BME280_temperature;BME280_humidity;BME280_pressure;Samples;Min_cycle;Max_cycle;Signal;HPM_P1;HPM_P2
2023/10/12 00:02:00;;;;;;;3.72;2.10;;;21.40;65.20;;;;;;5014065;28;20036;-19
2023/10/12 00:04:28;;;;;;;3.25;1.85;;;21.40;65.30;;;;;;5030840;28;20444;-19
2023/10/12 00:06:55;;;;;;;2.97;1.92;;;21.40;65.30;;;;;;5016042;28;20018;-20
2023/10/12 00:09:25;;;;;;;3.10;1.80;;;21.30;65.30;;;;;;5026424;28;20022;-20
2023/10/12 00:11:58;;;;;;;2.92;1.77;;;21.30;65.30;;;;;;5023769;28;20022;-20
2023/10/12 00:14:32;;;;;;;2.78;1.65;;;21.30;65.40;;;;;;5027182;28;20036;-19
2023/10/12 00:16:58;;;;;;;2.95;1.80;;;21.30;65.50;;;;;;5015746;28;20694;-20
2023/10/12 00:19:24;;;;;;;3.63;1.90;;;21.30;65.50;;;;;;5001926;28;20037;-19
2023/10/12 00:21:56;;;;;;;3.53;1.90;;;21.30;65.70;;;;;;5027326;28;20053;-21
2023/10/12 00:24:23;;;;;;;2.70;1.85;;;21.30;65.90;;;;;;5026505;28;20524;-19
2023/10/12 00:26:49;;;;;;;4.28;2.00;;;21.30;65.90;;;;;;5030729;28;20037;-19
2023/10/12 00:29:15;;;;;;;2.72;1.80;;;21.30;66.00;;;;;;5032067;28;20064;-19
2023/10/12 00:31:43;;;;;;;4.90;1.77;;;21.20;66.10;;;;;;5029051;28;20135;-20
2023/10/12 00:34:11;;;;;;;3.63;1.90;;;21.20;66.20;;;;;;4998950;28;20230;-19
2023/10/12 00:36:37;;;;;;;4.38;2.00;;;21.20;66.40;;;;;;5028265;28;20024;-19
2023/10/12 00:39:10;;;;;;;3.23;1.90;;;21.10;66.60;;;;;;5019947;28;21232;-19
2023/10/12 00:41:44;;;;;;;3.85;2.03;;;21.10;66.90;;;;;;5030390;28;20060;-19
2023/10/12 00:44:18;;;;;;;3.42;2.10;;;21.10;67.50;;;;;;5025718;28;20029;-19
2023/10/12 00:49:26;;;;;;;3.83;1.80;;;21.00;67.30;;;;;;5005628;28;20029;-19
2023/10/12 00:52:07;;;;;;;3.73;2.03;;;20.90;67.40;;;;;;5021330;28;20681;-19
2023/10/12 00:57:09;;;;;;;3.50;1.98;;;20.80;67.90;;;;;;5022679;28;20225;-19
2023/10/12 00:59:39;;;;;;;3.83;2.15;;;20.80;68.00;;;;;;5027724;28;20038;-19
2023/10/12 01:02:12;;;;;;;4.95;2.22;;;20.80;68.40;;;;;;5025818;28;20041;-19
2023/10/12 01:04:44;;;;;;;3.53;2.10;;;20.70;68.50;;;;;;5019591;28;20041;-19
2023/10/12 01:07:19;;;;;;;3.70;1.90;;;20.60;68.60;;;;;;5017966;28;20574;-19
2023/10/12 01:09:48;;;;;;;3.40;2.15;;;20.60;68.70;;;;;;5005430;28;20421;-20
2023/10/12 01:12:14;;;;;;;4.32;2.22;;;20.50;69.10;;;;;;5023415;28;20021;-21
2023/10/12 01:14:47;;;;;;;3.60;2.00;;;20.50;69.40;;;;;;5010918;28;20034;-19
2023/10/12 01:17:35;;;;;;;4.20;2.10;;;20.40;70.20;;;;;;5027751;28;20043;-19
2023/10/12 01:20:16;;;;;;;3.85;1.98;;;19.20;72.40;;;;;;5015422;28;20337;-18
2023/10/12 01:22:42;;;;;;;4.43;2.10;;;20.20;69.80;;;;;;5022914;28;20033;-18
2023/10/12 01:25:19;;;;;;;3.00;1.90;;;20.20;70.00;;;;;;5021746;28;20036;-19
2023/10/12 01:27:49;;;;;;;4.45;2.05;;;20.10;70.40;;;;;;5027969;28;20095;-19
2023/10/12 01:30:23;;;;;;;3.45;1.90;;;20.00;70.70;;;;;;5021092;28;20124;-19
2023/10/12 01:32:53;;;;;;;3.22;2.05;;;20.00;70.90;;;;;;5029750;28;20485;-20
2023/10/12 01:35:26;;;;;;;2.97;2.00;;;20.00;71.30;;;;;;5017784;28;20030;-19
2023/10/12 01:37:57;;;;;;;4.23;2.27;;;19.90;71.20;;;;;;5004282;28;20136;-20
2023/10/12 01:43:30;;;;;;;3.92;1.85;;;19.80;71.80;;;;;;4970337;28;20402;-20
2023/10/12 01:46:07;;;;;;;4.63;2.35;;;19.80;71.90;;;;;;5017258;28;20501;-19
2023/10/12 01:48:37;;;;;;;3.75;1.95;;;19.70;72.40;;;;;;5029331;28;20037;-19
2023/10/12 01:51:26;;;;;;;3.20;1.97;;;19.70;72.60;;;;;;5019249;28;20569;-19
2023/10/12 01:53:54;;;;;;;4.07;2.03;;;19.70;73.80;;;;;;5002392;28;20057;-20
2023/10/12 01:56:20;;;;;;;3.70;2.03;;;19.60;74.00;;;;;;5018423;28;20082;-22
2023/10/12 01:58:50;;;;;;;4.78;2.05;;;19.50;74.20;;;;;;5024828;28;20037;-21
2023/10/12 02:01:20;;;;;;;4.65;2.38;;;19.60;75.00;;;;;;5007953;28;20037;-24
2023/10/12 02:03:47;;;;;;;3.30;1.93;;;19.50;75.20;;;;;;5006291;28;20060;-27
2023/10/12 02:06:16;;;;;;;3.63;1.95;;;19.50;75.80;;;;;;5016705;28;20025;-23
2023/10/12 02:08:46;;;;;;;3.50;2.28;;;19.40;76.30;;;;;;5005735;28;20059;-20
2023/10/12 02:13:50;;;;;;;3.05;2.15;;;19.30;77.20;;;;;;5022004;28;20030;-24
2023/10/12 02:16:31;;;;;;;3.20;1.97;;;19.30;77.60;;;;;;5018226;28;20486;-21
2023/10/12 02:18:58;;;;;;;3.25;2.13;;;19.30;78.10;;;;;;5026405;28;20120;-24
2023/10/12 02:21:27;;;;;;;3.25;2.20;;;19.30;78.60;;;;;;5015610;28;20181;-22
2023/10/12 02:31:39;;;;;;;3.40;2.30;;;19.30;80.10;;;;;;5027071;28;20026;-24
2023/10/12 02:34:14;;;;;;;3.10;2.05;;;19.20;80.00;;;;;;5028556;28;20496;-25
2023/10/12 02:36:39;;;;;;;3.00;2.15;;;18.40;82.60;;;;;;5019769;28;20508;-26
2023/10/12 02:39:11;;;;;;;3.50;2.20;;;19.10;80.50;;;;;;4999392;28;20025;-24
2023/10/12 02:41:37;;;;;;;4.75;2.30;;;19.10;80.90;;;;;;5023528;28;20029;-26
2023/10/12 02:44:13;;;;;;;4.43;2.47;;;19.10;81.20;;;;;;5003599;28;20037;-25
2023/10/12 02:46:42;;;;;;;4.40;2.30;;;18.10;83.70;;;;;;5022794;28;20028;-26
2023/10/12 02:49:08;;;;;;;3.30;2.07;;;19.00;81.70;;;;;;5021814;28;20481;-29
2023/10/12 02:51:37;;;;;;;4.63;2.20;;;19.00;82.10;;;;;;5014525;28;20139;-26
2023/10/12 02:54:04;;;;;;;4.20;2.08;;;18.90;82.30;;;;;;5015376;28;20480;-28
2023/10/12 02:56:31;;;;;;;3.60;2.30;;;18.90;82.70;;;;;;5011331;28;20121;-27
2023/10/12 02:59:08;;;;;;;3.63;2.30;;;18.90;82.90;;;;;;5018311;28;20381;-27
2023/10/12 03:01:38;;;;;;;4.60;2.10;;;18.90;83.30;;;;;;5005149;28;20111;-23
2023/10/12 03:04:10;;;;;;;3.47;2.22;;;18.80;83.50;;;;;;5021015;28;20033;-25
2023/10/12 03:06:52;;;;;;;4.95;2.17;;;18.80;84.00;;;;;;5008107;28;20024;-25
2023/10/12 03:09:18;;;;;;;3.55;2.35;;;18.80;84.80;;;;;;4999392;28;20044;-24
2023/10/12 03:11:43;;;;;;;4.30;2.47;;;18.80;84.60;;;;;;5027563;28;20091;-28
2023/10/12 03:14:16;;;;;;;4.82;2.40;;;18.80;85.00;;;;;;5019812;28;20124;-28
2023/10/12 03:16:43;;;;;;;5.43;2.20;;;18.80;85.30;;;;;;5027761;28;20031;-28
2023/10/12 03:19:18;;;;;;;3.80;2.23;;;18.80;85.60;;;;;;5022382;28;20037;-27
2023/10/12 03:21:46;;;;;;;4.03;2.20;;;18.80;86.00;;;;;;5011212;28;20076;-24
2023/10/12 03:24:14;;;;;;;4.10;2.50;;;18.80;86.10;;;;;;4984152;28;20575;-28
2023/10/12 03:26:40;;;;;;;4.43;2.42;;;18.80;86.40;;;;;;5025102;28;20039;-25
2023/10/12 03:34:35;;;;;;;3.63;2.35;;;18.70;87.10;;;;;;5024242;28;20025;-25
2023/10/12 03:37:07;;;;;;;5.05;2.50;;;18.60;87.20;;;;;;5021528;28;20435;-24
2023/10/12 03:42:39;;;;;;;3.70;2.43;;;18.60;88.10;;;;;;5023404;28;20099;-27
2023/10/12 03:45:07;;;;;;;4.93;2.28;;;18.60;90.40;;;;;;5020038;28;20409;-24
2023/10/12 03:48:03;;;;;;;3.53;2.33;;;18.50;88.60;;;;;;5028078;28;20018;-27
2023/10/12 03:50:22;;;;;;;3.95;2.28;;;18.40;89.00;;;;;;5018920;28;20040;-25
2023/10/12 03:52:53;;;;;;;3.60;2.40;;;18.40;90.10;;;;;;5023099;28;20014;-25
2023/10/12 03:55:26;;;;;;;3.42;2.50;;;18.40;91.40;;;;;;5002200;28;20603;-24
2023/10/12 03:58:06;;;;;;;4.25;2.75;;;18.30;90.10;;;;;;5026715;28;20029;-25
2023/10/12 04:00:48;;;;;;;5.07;2.88;;;18.20;90.40;;;;;;5017802;28;20581;-23
2023/10/12 04:03:34;;;;;;;4.50;2.47;;;18.20;90.60;;;;;;5030637;28;20520;-24
2023/10/12 04:06:05;;;;;;;4.80;2.38;;;18.20;90.70;;;;;;5025418;28;20030;-25
2023/10/12 04:08:39;;;;;;;4.00;2.45;;;18.20;90.90;;;;;;5013899;28;20701;-23
2023/10/12 04:21:33;;;;;;;5.13;2.90;;;18.00;91.60;;;;;;5026592;28;20483;-30
2023/10/12 04:29:08;;;;;;;5.40;2.72;;;18.00;92.00;;;;;;5026533;28;20368;-29
2023/10/12 04:31:40;;;;;;;4.07;2.67;;;17.90;92.00;;;;;;5020311;28;20493;-33
2023/10/12 04:34:07;;;;;;;5.93;2.97;;;17.90;92.20;;;;;;5014080;28;20442;-29
2023/10/12 04:36:45;;;;;;;4.80;2.58;;;17.90;92.20;;;;;;5023588;28;20682;-26
2023/10/12 04:39:27;;;;;;;4.23;2.70;;;17.90;92.40;;;;;;5014968;28;20035;-27
2023/10/12 04:42:20;;;;;;;4.13;2.53;;;17.90;92.50;;;;;;5006895;28;20116;-31
2023/10/12 04:47:36;;;;;;;4.40;2.80;;;17.80;92.70;;;;;;4998221;28;20025;-23
2023/10/12 04:50:05;;;;;;;5.15;2.67;;;17.90;92.90;;;;;;5019471;28;20047;-25
2023/10/12 04:52:36;;;;;;;4.63;2.53;;;17.90;92.90;;;;;;5019560;28;20477;-24
2023/10/12 04:55:20;;;;;;;5.18;2.65;;;17.90;93.00;;;;;;5016747;28;20307;-24
2023/10/12 04:57:49;;;;;;;4.78;2.40;;;17.90;93.10;;;;;;4999760;28;20530;-22
2023/10/12 05:07:58;;;;;;;5.15;3.00;;;17.80;93.30;;;;;;5007455;28;20016;-24
2023/10/12 05:10:31;;;;;;;5.68;2.88;;;17.80;93.50;;;;;;5016846;28;20025;-22
2023/10/12 05:13:03;;;;;;;5.68;2.85;;;17.80;93.60;;;;;;5005448;28;20036;-22
2023/10/12 05:15:39;;;;;;;4.25;2.60;;;17.80;93.70;;;;;;5025724;28;20568;-23
2023/10/12 05:18:06;;;;;;;4.53;2.50;;;17.80;93.80;;;;;;5007248;28;20490;-24
2023/10/12 05:20:32;;;;;;;4.28;2.65;;;17.80;93.90;;;;;;5014742;28;20116;-24
2023/10/12 05:22:58;;;;;;;4.55;2.67;;;17.80;94.00;;;;;;5008321;28;20071;-22
2023/10/12 05:25:33;;;;;;;5.13;3.00;;;17.90;94.10;;;;;;5024187;28;20235;-23
2023/10/12 05:28:13;;;;;;;4.47;2.73;;;17.90;94.20;;;;;;5022627;28;20079;-22
2023/10/12 05:30:47;;;;;;;4.95;2.78;;;17.90;94.20;;;;;;5017209;28;20029;-25
2023/10/12 05:33:37;;;;;;;5.45;2.53;;;17.90;94.60;;;;;;5025820;28;20024;-24
2023/10/12 05:35:59;;;;;;;5.07;2.75;;;17.90;94.30;;;;;;5018158;28;20045;-23
2023/10/12 05:38:34;;;;;;;6.07;2.67;;;17.90;94.40;;;;;;4989921;28;20161;-22
2023/10/12 05:41:10;;;;;;;4.20;2.73;;;17.90;94.50;;;;;;5028536;28;20086;-23
2023/10/12 05:43:40;;;;;;;4.30;2.95;;;17.90;94.60;;;;;;5021191;28;20037;-22
2023/10/12 05:46:13;;;;;;;4.40;2.97;;;18.00;94.70;;;;;;5004096;28;20025;-22
2023/10/12 05:48:45;;;;;;;3.97;2.60;;;17.90;94.70;;;;;;5030577;28;20314;-21
2023/10/12 05:51:18;;;;;;;4.43;2.90;;;19.30;96.60;;;;;;5013937;28;20037;-23
2023/10/12 05:53:44;;;;;;;4.27;2.77;;;17.90;94.80;;;;;;4997814;28;20098;-22
2023/10/12 05:56:10;;;;;;;4.68;2.72;;;17.90;94.80;;;;;;5018237;28;20033;-24
2023/10/12 05:58:40;;;;;;;5.13;3.17;;;17.90;94.90;;;;;;5016295;28;20326;-28
2023/10/12 06:01:08;;;;;;;4.40;2.70;;;18.00;95.00;;;;;;4998917;28;20076;-24
2023/10/12 06:03:46;;;;;;;4.37;2.60;;;18.00;95.00;;;;;;5023953;28;20138;-29
2023/10/12 06:06:12;;;;;;;4.93;2.70;;;18.00;95.10;;;;;;5019147;28;20048;-24
2023/10/12 06:08:40;;;;;;;5.15;2.78;;;17.90;95.10;;;;;;5020441;28;20037;-25
2023/10/12 06:11:10;;;;;;;4.72;2.83;;;18.00;95.20;;;;;;5019734;28;20025;-28
2023/10/12 06:13:42;;;;;;;4.60;2.75;;;18.00;95.30;;;;;;5023982;28;20025;-27
2023/10/12 06:16:14;;;;;;;4.43;2.60;;;18.00;95.40;;;;;;4999152;28;20446;-26
2023/10/12 06:18:44;;;;;;;4.53;2.72;;;18.00;95.30;;;;;;5013649;28;20025;-30
2023/10/12 06:21:24;;;;;;;5.57;2.92;;;18.00;95.30;;;;;;5013123;28;20240;-30
2023/10/12 06:23:50;;;;;;;5.00;2.83;;;18.00;95.30;;;;;;5022287;28;20382;-27
2023/10/12 06:26:28;;;;;;;4.50;2.42;;;18.10;96.50;;;;;;5010027;28;20619;-25
2023/10/12 06:28:58;;;;;;;4.53;2.57;;;18.00;95.50;;;;;;5023226;28;20109;-25
2023/10/12 06:31:31;;;;;;;4.95;2.63;;;18.00;95.50;;;;;;4998886;28;20040;-27
2023/10/12 06:34:03;;;;;;;5.43;3.20;;;18.00;95.50;;;;;;5026015;28;20027;-26
2023/10/12 06:36:38;;;;;;;4.72;2.83;;;18.00;95.50;;;;;;5019086;28;20108;-30
2023/10/12 06:44:22;;;;;;;4.47;2.80;;;18.00;95.70;;;;;;5017937;28;20269;-22
2023/10/12 06:46:49;;;;;;;4.80;2.70;;;18.00;95.80;;;;;;5015652;28;20021;-24
2023/10/12 06:49:21;;;;;;;4.65;2.83;;;18.00;95.80;;;;;;5019792;28;20029;-22
2023/10/12 06:51:53;;;;;;;6.15;2.67;;;18.00;95.90;;;;;;5017312;28;20903;-23
2023/10/12 06:54:31;;;;;;;5.30;2.80;;;18.00;95.90;;;;;;5026998;28;20030;-22
2023/10/12 06:57:29;;;;;;;5.13;2.58;;;17.90;96.30;;;;;;5007247;28;20045;-23
2023/10/12 07:02:28;;;;;;;4.32;2.67;;;18.00;96.00;;;;;;4998031;28;20044;-21
2023/10/12 07:04:55;;;;;;;5.60;2.88;;;18.00;96.10;;;;;;5023935;28;20028;-22
2023/10/12 07:07:29;;;;;;;4.30;2.60;;;18.00;96.10;;;;;;5020021;28;20518;-21
2023/10/12 07:10:31;;;;;;;4.40;2.60;;;18.00;96.20;;;;;;5025325;28;20075;-22
2023/10/12 07:12:50;;;;;;;4.45;2.53;;;18.00;96.30;;;;;;5005229;28;20498;-23
2023/10/12 07:15:26;;;;;;;3.53;2.33;;;18.00;96.30;;;;;;5023323;28;20225;-21
2023/10/12 07:17:53;;;;;;;5.33;2.60;;;18.00;96.30;;;;;;4996773;28;20068;-23
2023/10/12 07:20:40;;;;;;;5.65;2.80;;;18.00;96.40;;;;;;5027812;28;20025;-22
2023/10/12 07:23:20;;;;;;;3.92;2.45;;;18.00;96.40;;;;;;5016469;28;20548;-20
2023/10/12 07:25:51;;;;;;;4.10;2.47;;;18.00;96.50;;;;;;5022530;28;20029;-20
2023/10/12 07:28:32;;;;;;;4.30;2.53;;;18.00;96.50;;;;;;5007857;28;20055;-22
2023/10/12 07:33:32;;;;;;;4.28;2.40;;;18.00;96.60;;;;;;4998289;28;20284;-20
2023/10/12 07:36:17;;;;;;;4.10;2.50;;;18.10;96.70;;;;;;5027763;28;20095;-19
2023/10/12 07:38:55;;;;;;;4.18;2.35;;;18.10;96.70;;;;;;5017389;28;20078;-21
2023/10/12 07:41:33;;;;;;;3.38;2.17;;;18.10;96.80;;;;;;5015124;28;20404;-22
2023/10/12 07:43:58;;;;;;;4.07;2.40;;;18.10;97.00;;;;;;5020144;28;20045;-22
2023/10/12 07:46:27;;;;;;;4.10;2.33;;;18.10;97.10;;;;;;5020948;28;20368;-21
2023/10/12 07:48:53;;;;;;;4.32;2.35;;;18.10;97.20;;;;;;4982705;28;20719;-24
2023/10/12 07:51:24;;;;;;;4.70;2.87;;;18.20;97.30;;;;;;5023204;28;20100;-24
2023/10/12 07:53:57;;;;;;;4.30;2.30;;;18.30;97.40;;;;;;5013355;28;20746;-28
2023/10/12 07:56:24;;;;;;;3.88;2.03;;;18.30;97.50;;;;;;5026280;28;20512;-25
2023/10/12 07:58:57;;;;;;;4.00;2.35;;;18.40;97.70;;;;;;5009212;28;20034;-26
2023/10/12 08:03:58;;;;;;;5.05;2.25;;;18.50;97.90;;;;;;4997737;28;20409;-24
2023/10/12 08:06:43;;;;;;;5.15;2.60;;;18.60;98.00;;;;;;5020089;28;20117;-24
2023/10/12 08:09:33;;;;;;;4.43;2.20;;;18.60;98.00;;;;;;5013548;28;23185;-21
2023/10/12 08:12:23;;;;;;;4.25;2.15;;;18.70;98.10;;;;;;5014132;28;20161;-22
2023/10/12 08:14:45;;;;;;;3.80;2.30;;;18.80;98.10;;;;;;5008286;28;20526;-22
2023/10/12 08:17:33;;;;;;;3.65;2.17;;;18.90;98.00;;;;;;5023460;28;20044;-22
2023/10/12 08:22:46;;;;;;;4.95;2.47;;;18.90;98.30;;;;;;5021285;28;20410;-22
2023/10/12 08:25:14;;;;;;;3.70;2.50;;;18.90;98.00;;;;;;5016252;28;20558;-20
2023/10/12 08:27:52;;;;;;;4.35;2.58;;;19.00;98.40;;;;;;5023360;28;20592;-21
2023/10/12 08:30:44;;;;;;;4.68;2.53;;;19.00;98.20;;;;;;5008025;28;20053;-19
2023/10/12 08:33:49;;;;;;;5.65;2.72;;;19.00;98.20;;;;;;5021942;28;20233;-19
2023/10/12 08:36:23;;;;;;;4.15;2.60;;;19.10;98.70;;;;;;4993707;28;20124;-20
2023/10/12 08:38:54;;;;;;;3.90;2.60;;;19.10;98.40;;;;;;5023116;28;20041;-20
2023/10/12 08:43:59;;;;;;;3.28;2.25;;;19.20;98.30;;;;;;5012496;28;20040;-20
2023/10/12 08:52:05;;;;;;;3.43;2.17;;;19.30;98.40;;;;;;5009295;28;20103;-19
2023/10/12 08:54:38;;;;;;;3.65;2.53;;;19.40;98.30;;;;;;5024568;28;20312;-19
2023/10/12 08:57:18;;;;;;;3.65;2.30;;;19.40;98.30;;;;;;5021922;28;20037;-20
2023/10/12 09:00:23;;;;;;;3.95;2.40;;;19.50;98.40;;;;;;5018552;28;20846;-20
2023/10/12 09:02:38;;;;;;;5.53;2.88;;;19.50;98.40;;;;;;5026937;28;20213;-20
2023/10/12 09:05:10;;;;;;;5.60;3.37;;;19.50;98.60;;;;;;5007626;28;20128;-20
2023/10/12 09:07:45;;;;;;;4.65;2.95;;;19.60;98.60;;;;;;5017278;28;20237;-20
2023/10/12 09:10:36;;;;;;;5.25;3.00;;;19.60;98.60;;;;;;5022055;28;20096;-19
2023/10/12 09:12:56;;;;;;;5.53;2.85;;;19.70;98.60;;;;;;5029221;28;20025;-23
2023/10/12 09:15:30;;;;;;;3.87;2.50;;;19.60;98.60;;;;;;5013791;28;20169;-20
2023/10/12 09:17:55;;;;;;;5.05;2.53;;;19.70;98.60;;;;;;5026401;28;20293;-19
2023/10/12 09:20:28;;;;;;;4.73;2.50;;;19.70;98.70;;;;;;5022283;28;20215;-24
2023/10/12 09:23:05;;;;;;;4.30;2.40;;;19.70;98.70;;;;;;5007674;28;20303;-21
2023/10/12 09:28:15;;;;;;;5.57;2.80;;;19.80;98.80;;;;;;5017506;28;20029;-20
2023/10/12 09:30:45;;;;;;;4.50;2.30;;;19.80;98.90;;;;;;5013127;28;20480;-21
2023/10/12 09:33:44;;;;;;;4.93;2.30;;;19.80;98.90;;;;;;5012094;28;20470;-19
2023/10/12 09:36:00;;;;;;;5.20;2.45;;;19.80;98.70;;;;;;5027776;28;20048;-19
2023/10/12 09:38:30;;;;;;;4.63;2.58;;;19.90;98.70;;;;;;5002110;28;20063;-19
2023/10/12 09:41:00;;;;;;;5.03;2.50;;;19.90;98.60;;;;;;5025585;28;20074;-20
2023/10/12 09:43:30;;;;;;;4.43;2.33;;;19.90;98.50;;;;;;5017942;28;20153;-19
2023/10/12 09:46:04;;;;;;;5.75;3.00;;;19.90;98.50;;;;;;5024444;28;20527;-21
2023/10/12 09:48:38;;;;;;;6.30;2.97;;;19.80;98.40;;;;;;5020459;28;20025;-20
2023/10/12 09:51:10;;;;;;;5.28;2.90;;;19.80;98.50;;;;;;5015192;28;20620;-18
2023/10/12 09:53:44;;;;;;;5.53;2.70;;;19.80;98.40;;;;;;4999444;28;20274;-20
2023/10/12 09:56:15;;;;;;;4.77;3.07;;;19.80;98.30;;;;;;5023952;28;20394;-19
2023/10/12 09:58:51;;;;;;;5.10;3.03;;;19.80;98.50;;;;;;5017372;28;20277;-19
2023/10/12 10:01:25;;;;;;;5.45;2.90;;;19.80;98.60;;;;;;5011358;28;20046;-18
2023/10/12 10:04:15;;;;;;;5.53;2.42;;;19.80;98.60;;;;;;5026297;28;20086;-19
2023/10/12 10:06:45;;;;;;;4.85;2.80;;;19.80;98.70;;;;;;5025126;28;20497;-20
2023/10/12 10:09:37;;;;;;;4.00;2.13;;;19.80;98.70;;;;;;5000626;28;20227;-18
2023/10/12 10:12:08;;;;;;;3.28;1.90;;;19.80;98.80;;;;;;5027780;28;20052;-18
2023/10/12 10:14:36;;;;;;;4.20;2.25;;;19.90;98.90;;;;;;5015351;28;20154;-18
2023/10/12 10:17:02;;;;;;;3.85;2.33;;;19.90;98.90;;;;;;5017585;28;20524;-18
2023/10/12 10:19:29;;;;;;;4.78;2.42;;;19.90;99.00;;;;;;5004090;28;20545;-18
2023/10/12 10:22:05;;;;;;;3.57;2.23;;;19.90;99.10;;;;;;5029083;28;20013;-19
2023/10/12 10:24:43;;;;;;;4.07;2.33;;;19.90;99.00;;;;;;4998711;28;20192;-21
2023/10/12 10:27:12;;;;;;;4.70;2.60;;;20.00;99.10;;;;;;5021476;28;20037;-18
2023/10/12 10:29:44;;;;;;;4.15;2.70;;;20.00;99.30;;;;;;5015338;28;20021;-19
2023/10/12 10:32:14;;;;;;;5.57;2.40;;;20.10;99.20;;;;;;5020684;28;20068;-18
2023/10/12 10:34:42;;;;;;;4.00;2.33;;;20.10;99.40;;;;;;5023442;28;20058;-19
2023/10/12 10:37:08;;;;;;;5.35;2.75;;;20.20;99.40;;;;;;5024946;28;20058;-18
2023/10/12 10:39:37;;;;;;;4.80;2.75;;;20.20;99.90;;;;;;5017836;28;20339;-19
2023/10/12 10:42:08;;;;;;;8.13;3.50;;;20.40;99.90;;;;;;5003190;28;20025;-18
2023/10/12 10:44:41;;;;;;;6.07;3.20;;;20.50;99.90;;;;;;5017832;28;20667;-19
2023/10/12 10:47:10;;;;;;;7.73;3.23;;;20.60;99.90;;;;;;5020713;28;20024;-18
2023/10/12 10:49:35;;;;;;;7.47;3.60;;;20.60;99.90;;;;;;5016801;28;20325;-18
2023/10/12 10:54:39;;;;;;;5.28;2.83;;;20.70;99.30;;;;;;5025583;28;20236;-19
2023/10/12 11:00:00;;;;;;;6.55;3.00;;;20.80;99.70;;;;;;5012800;28;20127;-18
2023/10/12 11:02:27;;;;;;;4.70;2.75;;;20.90;99.90;;;;;;5012819;28;21383;-18
2023/10/12 11:04:55;;;;;;;5.43;2.83;;;21.00;99.90;;;;;;5024682;28;20103;-19
2023/10/12 11:07:21;;;;;;;6.20;3.37;;;21.00;99.90;;;;;;5019823;28;20025;-18
2023/10/12 11:12:17;;;;;;;5.97;2.97;;;21.20;99.40;;;;;;5002244;28;20037;-18
2023/10/12 11:14:52;;;;;;;6.10;3.40;;;21.20;99.40;;;;;;5023061;28;20475;-18
2023/10/12 11:17:21;;;;;;;5.63;3.05;;;21.20;99.00;;;;;;5009519;28;20098;-18
2023/10/12 11:19:50;;;;;;;4.57;2.92;;;21.10;98.40;;;;;;5030655;28;21058;-18
2023/10/12 11:22:16;;;;;;;5.35;2.80;;;21.10;98.50;;;;;;5022675;28;20039;-18
2023/10/12 11:24:45;;;;;;;5.23;3.20;;;21.00;98.50;;;;;;5024985;28;20409;-18
2023/10/12 11:27:12;;;;;;;7.10;3.03;;;21.00;98.30;;;;;;5000645;28;20513;-18
2023/10/12 11:29:51;;;;;;;4.82;2.90;;;20.90;98.50;;;;;;5024794;28;20245;-18
2023/10/12 11:32:20;;;;;;;4.95;2.58;;;20.80;97.90;;;;;;5020012;28;20027;-18
2023/10/12 11:34:54;;;;;;;5.10;2.55;;;20.80;98.60;;;;;;5003763;28;20044;-18
2023/10/12 11:37:20;;;;;;;4.82;2.70;;;20.70;98.00;;;;;;5020992;28;20375;-18
2023/10/12 11:39:49;;;;;;;4.27;2.50;;;20.70;98.20;;;;;;5027573;28;20445;-18
2023/10/12 11:42:15;;;;;;;3.40;2.47;;;20.60;98.20;;;;;;5011894;28;20521;-17
2023/10/12 11:44:51;;;;;;;4.35;2.70;;;20.50;98.30;;;;;;5018212;28;20034;-18
2023/10/12 11:47:17;;;;;;;3.88;2.55;;;20.50;97.90;;;;;;5014445;28;20508;-18
2023/10/12 11:49:55;;;;;;;4.03;2.40;;;20.40;98.50;;;;;;5015564;28;20037;-17
2023/10/12 11:52:34;;;;;;;4.88;2.35;;;20.40;98.30;;;;;;5020974;28;20353;-17
2023/10/12 11:55:07;;;;;;;5.28;2.80;;;20.40;98.90;;;;;;5025135;28;20068;-17
2023/10/12 11:57:43;;;;;;;6.83;2.87;;;20.40;98.80;;;;;;4997131;28;20030;-18
2023/10/12 12:00:21;;;;;;;4.70;2.80;;;20.40;98.70;;;;;;5021392;28;20024;-17
2023/10/12 12:02:57;;;;;;;5.35;2.97;;;20.40;99.00;;;;;;5017852;28;20045;-18
2023/10/12 12:05:29;;;;;;;4.18;2.70;;;20.40;99.00;;;;;;5016475;28;20129;-17
2023/10/12 12:07:57;;;;;;;5.53;3.20;;;20.40;99.00;;;;;;5029144;28;20104;-18
2023/10/12 12:10:29;;;;;;;4.77;2.83;;;20.30;99.10;;;;;;5023851;28;20017;-18
2023/10/12 12:12:58;;;;;;;5.38;3.28;;;20.40;99.10;;;;;;5026932;28;20106;-17
2023/10/12 12:15:24;;;;;;;4.40;2.95;;;20.30;99.00;;;;;;5000918;28;20340;-18
2023/10/12 12:17:51;;;;;;;5.45;3.25;;;20.30;99.00;;;;;;5025867;28;20390;-17
2023/10/12 12:20:21;;;;;;;6.22;3.95;;;20.30;99.00;;;;;;5000027;28;20512;-18
2023/10/12 12:22:47;;;;;;;5.37;3.17;;;20.30;98.90;;;;;;5044891;28;20130;-18
2023/10/12 12:25:18;;;;;;;5.93;3.40;;;20.20;99.00;;;;;;5028793;28;20025;-18
2023/10/12 12:27:48;;;;;;;5.78;3.28;;;20.20;99.10;;;;;;5024925;28;20370;-20
2023/10/12 12:30:25;;;;;;;5.68;2.90;;;20.10;99.00;;;;;;5002524;28;20495;-20
2023/10/12 12:32:51;;;;;;;5.07;3.17;;;20.10;99.10;;;;;;5020642;28;20038;-18
2023/10/12 12:35:16;;;;;;;4.53;2.93;;;20.00;99.10;;;;;;5016562;28;20492;-20
2023/10/12 12:37:42;;;;;;;4.80;2.88;;;20.00;99.20;;;;;;5028116;28;20594;-18
2023/10/12 12:42:52;;;;;;;4.45;3.00;;;19.90;99.40;;;;;;5029578;28;20030;-19
2023/10/12 12:45:18;;;;;;;5.47;3.23;;;19.90;99.50;;;;;;5003809;28;20036;-20
2023/10/12 12:47:44;;;;;;;5.72;3.30;;;19.90;99.50;;;;;;5025077;28;20033;-19
2023/10/12 12:50:10;;;;;;;5.97;3.20;;;19.90;99.60;;;;;;5021616;28;20034;-22
2023/10/12 12:52:36;;;;;;;5.23;3.37;;;19.90;99.60;;;;;;5000334;28;20843;-20
2023/10/12 12:55:10;;;;;;;6.97;3.05;;;19.90;99.60;;;;;;5028994;28;20170;-22
2023/10/12 12:57:38;;;;;;;4.57;2.92;;;19.80;99.50;;;;;;5027356;28;20284;-22
2023/10/12 13:00:10;;;;;;;6.47;3.30;;;19.80;99.60;;;;;;5002620;28;20036;-22
2023/10/12 13:02:37;;;;;;;7.13;3.20;;;19.80;99.60;;;;;;5028707;28;20150;-26
2023/10/12 13:05:07;;;;;;;5.40;3.30;;;19.80;99.70;;;;;;5003748;28;20037;-25
2023/10/12 13:07:34;;;;;;;5.63;3.03;;;19.80;99.80;;;;;;5019594;28;20595;-22
2023/10/12 13:10:00;;;;;;;6.15;3.47;;;19.70;99.90;;;;;;5009392;28;20319;-23
2023/10/12 13:12:31;;;;;;;4.78;3.00;;;19.70;99.90;;;;;;5025296;28;20536;-27
2023/10/12 13:15:00;;;;;;;6.88;3.35;;;19.70;99.90;;;;;;5031999;28;20528;-25
2023/10/12 13:17:30;;;;;;;7.50;3.30;;;19.70;99.90;;;;;;5004560;28;20037;-30
2023/10/12 13:19:59;;;;;;;6.43;2.85;;;19.70;99.90;;;;;;5021309;28;20044;-27
2023/10/12 13:22:25;;;;;;;5.90;2.80;;;19.80;99.90;;;;;;5011191;28;22481;-26
2023/10/12 13:24:56;;;;;;;5.07;2.97;;;19.80;99.90;;;;;;5026606;28;20034;-26
2023/10/12 13:27:32;;;;;;;6.43;3.25;;;20.40;99.90;;;;;;5007342;28;20187;-26
2023/10/12 13:30:01;;;;;;;6.80;3.47;;;19.80;99.90;;;;;;5033519;28;20175;-28
2023/10/12 13:32:27;;;;;;;6.95;3.40;;;19.80;99.90;;;;;;4990850;28;20058;-26
2023/10/12 13:34:58;;;;;;;4.95;3.03;;;19.70;99.90;;;;;;5020891;28;20040;-26
2023/10/12 13:37:30;;;;;;;6.50;3.55;;;19.70;99.90;;;;;;5029745;28;20195;-26
2023/10/12 13:39:57;;;;;;;5.57;3.30;;;19.70;99.90;;;;;;5014576;28;20360;-28
2023/10/12 13:42:23;;;;;;;6.13;3.40;;;19.70;99.90;;;;;;5023808;28;20518;-31
2023/10/12 13:44:50;;;;;;;5.90;3.40;;;19.70;99.90;;;;;;5022583;28;20025;-32
2023/10/12 13:47:16;;;;;;;7.63;3.50;;;19.60;99.90;;;;;;5004589;28;20042;-27
2023/10/12 13:49:42;;;;;;;7.38;3.60;;;19.60;99.90;;;;;;5016379;28;20047;-28
2023/10/12 13:52:09;;;;;;;5.97;3.33;;;19.50;99.90;;;;;;5026909;28;20021;-29
2023/10/12 13:54:36;;;;;;;5.82;3.65;;;19.50;99.90;;;;;;5013724;28;20363;-32
2023/10/12 13:57:02;;;;;;;6.35;3.38;;;19.50;99.90;;;;;;5027964;28;20029;-27
2023/10/12 13:59:29;;;;;;;4.65;2.85;;;19.40;99.90;;;;;;5022748;28;20407;-26
2023/10/12 14:01:59;;;;;;;5.32;3.15;;;19.40;99.90;;;;;;5003536;28;20053;-28
2023/10/12 14:04:33;;;;;;;4.20;2.83;;;19.30;99.90;;;;;;5023433;28;20221;-30
2023/10/12 14:07:03;;;;;;;5.07;2.83;;;19.40;99.90;;;;;;5020633;28;20060;-26
2023/10/12 14:09:31;;;;;;;5.57;3.22;;;19.40;99.90;;;;;;5013289;28;20201;-31
2023/10/12 14:11:57;;;;;;;5.95;3.38;;;19.30;99.90;;;;;;5026074;28;20037;-28
2023/10/12 14:14:28;;;;;;;4.80;3.05;;;19.30;99.90;;;;;;5025593;28;20021;-28
2023/10/12 14:16:54;;;;;;;4.67;3.00;;;19.30;99.90;;;;;;5003302;28;20471;-27
2023/10/12 14:19:23;;;;;;;5.10;3.03;;;19.30;99.90;;;;;;5024189;28;20591;-29
2023/10/12 14:21:56;;;;;;;6.00;3.30;;;19.30;99.90;;;;;;5002931;28;20601;-30
2023/10/12 14:24:23;;;;;;;5.55;3.38;;;19.30;99.90;;;;;;5016253;28;20030;-27
2023/10/12 14:26:50;;;;;;;5.30;3.03;;;19.30;99.90;;;;;;5014152;28;20051;-31
2023/10/12 14:29:18;;;;;;;7.75;4.15;;;19.30;99.90;;;;;;5027632;28;20533;-29
2023/10/12 14:31:45;;;;;;;6.70;3.88;;;19.30;99.90;;;;;;5001186;28;20026;-27
2023/10/12 14:34:13;;;;;;;5.97;3.88;;;19.30;99.90;;;;;;5026083;28;20052;-28
2023/10/12 14:36:40;;;;;;;5.40;3.35;;;19.30;99.90;;;;;;5018515;28;20090;-26
2023/10/12 14:39:13;;;;;;;6.23;3.27;;;19.30;99.90;;;;;;4997871;28;20300;-28
2023/10/12 14:41:39;;;;;;;6.70;3.85;;;19.30;99.90;;;;;;5004247;28;20108;-26